Time;durP1;ratioP1;P1;durP2;ratioP2;P2;SDS_P1;SDS_P2;PMS_P1;PMS_P2;Temp;Humidity;BMP_temperature;BMP_pressure;BME280_temperature;BME280_humidity;BME280_pressure;Samples;Min_cycle;Max_cycle;Signal;HPM_P1;HPM_P2
2023/08/09 00:02:31;;;;;;;3.93;1.23;;;;;;;12.92;100.00;100254.45;5061511;57;1140854;-65
2023/08/09 00:07:36;;;;;;;2.03;1.10;;;;;;;12.89;100.00;100248.94;5041213;57;1140699;-67
2023/08/09 00:12:42;;;;;;;2.83;1.20;;;;;;;12.88;100.00;100251.73;5042054;56;1140975;-65
2023/08/09 00:17:48;;;;;;;8.85;1.45;;;;;;;12.87;100.00;100256.69;5076083;56;1140726;-65
2023/08/09 00:22:53;;;;;;;1.85;1.17;;;;;;;12.84;100.00;100255.63;5118183;56;1140666;-66
2023/08/09 00:27:59;;;;;;;1.53;0.83;;;;;;;12.81;100.00;100262.08;5042353;56;1140775;-64
2023/08/09 00:33:05;;;;;;;3.63;1.27;;;;;;;12.77;100.00;100245.24;5062634;56;1141139;-65
2023/08/09 00:38:11;;;;;;;1.67;1.17;;;;;;;12.74;100.00;100252.15;5041834;57;1140874;-65
2023/08/09 00:43:16;;;;;;;2.50;1.50;;;;;;;12.67;100.00;100271.30;5042407;56;1140902;-65
2023/08/09 00:48:23;;;;;;;1.47;1.13;;;;;;;12.60;100.00;100274.14;5062677;56;1140896;-65
2023/08/09 00:53:28;;;;;;;2.23;1.27;;;;;;;12.51;100.00;100264.85;5043237;56;1140748;-64
2023/08/09 00:58:34;;;;;;;3.77;1.30;;;;;;;12.47;100.00;100267.42;5042911;56;1140863;-64
2023/08/09 01:03:40;;;;;;;3.57;1.43;;;;;;;12.43;100.00;100277.94;5061648;56;1140866;-65
2023/08/09 01:09:02;;;;;;;6.20;1.20;;;;;;;12.38;100.00;100274.36;5042737;57;1140993;-64
2023/08/09 01:14:10;;;;;;;1.30;0.82;;;;;;;12.34;100.00;100269.00;5042576;56;1141070;-65
2023/08/09 01:19:26;;;;;;;3.87;1.33;;;;;;;12.39;100.00;100275.20;5061778;57;1140781;-65
2023/08/09 01:24:32;;;;;;;1.33;1.03;;;;;;;12.39;100.00;100275.20;5017453;57;1140722;-66
2023/08/09 01:29:39;;;;;;;4.43;1.43;;;;;;;12.37;100.00;100282.00;5043054;57;1140902;-67
2023/08/09 01:34:46;;;;;;;2.67;1.22;;;;;;;12.36;100.00;100277.67;5062568;56;1140934;-66
2023/08/09 01:39:55;;;;;;;4.53;1.52;;;;;;;12.36;100.00;100271.04;5048653;56;1140802;-65
2023/08/09 01:45:02;;;;;;;2.17;1.40;;;;;;;12.39;100.00;100277.86;5053327;57;1141099;-65
2023/08/09 01:50:24;;;;;;;5.03;1.03;;;;;;;12.37;100.00;100275.38;5073221;57;1140834;-65
2023/08/09 01:55:31;;;;;;;6.03;1.20;;;;;;;12.39;100.00;100269.90;5052089;57;1140736;-64
2023/08/09 02:00:37;;;;;;;3.55;1.20;;;;;;;12.38;100.00;100262.43;5052327;56;1140786;-65
2023/08/09 02:05:44;;;;;;;2.52;1.10;;;;;;;12.39;100.00;100265.92;5073160;56;1141169;-65
2023/08/09 02:10:49;;;;;;;4.90;1.70;;;;;;;12.41;100.00;100269.28;5075440;56;1140988;-65
2023/08/09 02:15:55;;;;;;;3.50;1.30;;;;;;;12.42;100.00;100266.98;5121194;56;1140954;-65
2023/08/09 02:21:02;;;;;;;3.63;1.87;;;;;;;12.43;100.00;100277.94;5073012;56;1140935;-65
2023/08/09 02:26:09;;;;;;;1.90;1.73;;;;;;;12.43;100.00;100279.27;5053742;56;1140879;-65
2023/08/09 02:31:14;;;;;;;1.43;1.00;;;;;;;12.41;100.00;100276.75;5053860;56;1140659;-66
2023/08/09 02:36:20;;;;;;;1.23;1.13;;;;;;;12.38;100.00;100277.02;5072627;56;1141025;-66
2023/08/09 02:41:25;;;;;;;0.97;0.97;;;;;;;12.37;100.00;100278.02;5048330;57;1140975;-65
2023/08/09 02:46:31;;;;;;;1.55;1.05;;;;;;;12.38;100.00;100277.50;5042633;57;1140906;-65
2023/08/09 02:51:38;;;;;;;2.03;1.00;;;;;;;12.32;100.00;100282.89;5062219;57;1140712;-65
2023/08/09 02:56:43;;;;;;;2.70;1.07;;;;;;;12.25;100.00;100285.23;5041429;56;1140873;-65
2023/08/09 03:01:49;;;;;;;1.75;1.02;;;;;;;12.18;100.00;100289.41;5042414;56;1140889;-64
2023/08/09 03:06:55;;;;;;;1.00;1.00;;;;;;;12.16;100.00;100290.52;5081193;56;1141059;-66
2023/08/09 03:12:00;;;;;;;2.60;1.27;;;;;;;12.14;100.00;100296.43;5112146;56;1140828;-65
2023/08/09 03:17:06;;;;;;;5.10;1.50;;;;;;;12.15;100.00;100299.44;5043007;56;1140874;-65
2023/08/09 03:22:12;;;;;;;4.30;1.20;;;;;;;12.12;100.00;100305.00;5061757;56;1140852;-65
2023/08/09 03:27:18;;;;;;;5.10;1.03;;;;;;;12.10;100.00;100318.87;5042061;56;1140824;-65
2023/08/09 03:32:24;;;;;;;1.60;1.20;;;;;;;12.06;100.00;100315.67;5115951;56;1140883;-64
2023/08/09 03:37:30;;;;;;;1.23;1.20;;;;;;;12.06;100.00;100312.19;5042415;57;1140778;-65
2023/08/09 03:42:36;;;;;;;3.02;1.27;;;;;;;12.05;100.00;100315.31;5061276;57;1141065;-65
2023/08/09 03:47:42;;;;;;;3.27;0.97;;;;;;;12.08;100.00;100311.05;5041904;57;1140804;-64
2023/08/09 03:52:49;;;;;;;0.90;0.90;;;;;;;12.05;100.00;100312.66;5076555;56;1141071;-65
2023/08/09 03:57:55;;;;;;;3.02;0.93;;;;;;;12.01;100.00;100303.78;5146687;56;1140883;-64
2023/08/09 04:03:02;;;;;;;2.83;1.10;;;;;;;11.97;100.00;100301.87;5110075;56;1140855;-65
2023/08/09 04:08:08;;;;;;;0.90;0.90;;;;;;;11.95;100.00;100296.70;5049661;56;1140798;-66
2023/08/09 04:13:14;;;;;;;2.23;0.90;;;;;;;11.98;100.00;100298.25;5064659;56;1140488;-65
2023/08/09 04:18:20;;;;;;;3.13;1.13;;;;;;;12.03;100.00;100303.16;5050349;56;1140937;-65
2023/08/09 04:23:26;;;;;;;3.20;1.10;;;;;;;12.08;100.00;100311.05;4949585;58;1140847;-65
2023/08/09 04:28:32;;;;;;;3.45;1.20;;;;;;;12.17;100.00;100317.38;5041950;57;1141013;-65
2023/08/09 04:33:38;;;;;;;1.27;0.93;;;;;;;12.26;100.00;100328.48;5064044;56;1140858;-64
2023/08/09 04:38:43;;;;;;;2.40;0.70;;;;;;;12.32;100.00;100318.20;5042013;56;1140775;-65
2023/08/09 04:43:49;;;;;;;4.03;1.87;;;;;;;12.33;100.00;100324.34;5052415;56;1141019;-65
2023/08/09 04:48:56;;;;;;;1.65;1.55;;;;;;;12.31;100.00;100327.61;5092712;56;1140960;-65
2023/08/09 04:54:01;;;;;;;6.50;1.10;;;;;;;12.31;100.00;100331.10;5074109;56;1140965;-65
2023/08/09 04:59:07;;;;;;;2.50;1.80;;;;;;;12.32;100.00;100327.97;5119375;56;1140790;-66
2023/08/09 05:04:13;;;;;;;1.73;1.63;;;;;;;12.35;100.00;100321.07;5083117;56;1140905;-65
2023/08/09 05:09:18;;;;;;;2.43;1.70;;;;;;;12.40;100.00;100332.09;5057719;56;1140898;-65
2023/08/09 05:14:25;;;;;;;2.27;1.90;;;;;;;12.41;100.00;100331.61;5115847;56;1140928;-64
2023/08/09 05:19:31;;;;;;;5.47;1.80;;;;;;;12.41;100.00;100335.59;5072062;56;1140728;-65
2023/08/09 05:24:36;;;;;;;6.70;1.60;;;;;;;12.40;100.00;100338.73;5107615;56;1140935;-65
2023/08/09 05:29:42;;;;;;;2.00;1.47;;;;;;;12.48;100.00;100343.38;5058923;56;1140765;-66
2023/08/09 05:34:48;;;;;;;5.23;1.90;;;;;;;12.64;100.00;100354.30;5083744;56;1140993;-65
2023/08/09 05:39:53;;;;;;;1.62;1.50;;;;;;;12.70;100.00;100353.73;5136836;56;1141101;-65
2023/08/09 05:44:59;;;;;;;2.60;1.85;;;;;;;12.71;100.00;100365.19;5100374;56;1140597;-64
2023/08/09 05:50:06;;;;;;;3.17;1.57;;;;;;;12.87;100.00;100370.81;5042396;56;1140907;-65
2023/08/09 05:55:11;;;;;;;1.97;1.60;;;;;;;13.10;100.00;100366.95;5064661;56;1140568;-65
2023/08/09 06:00:18;;;;;;;3.47;1.63;;;;;;;13.26;100.00;100365.94;5042244;56;1140900;-65
2023/08/09 06:05:26;;;;;;;3.37;1.67;;;;;;;13.38;100.00;100354.67;5048729;56;1140930;-65
2023/08/09 06:10:32;;;;;;;2.75;1.50;;;;;;;13.57;100.00;100370.60;5042522;56;1140892;-65
2023/08/09 06:15:38;;;;;;;2.63;1.70;;;;;;;13.73;100.00;100374.84;5068207;56;1141133;-66
2023/08/09 06:20:44;;;;;;;4.47;2.10;;;;;;;13.79;100.00;100382.72;5050434;56;1140944;-66
2023/08/09 06:25:50;;;;;;;3.27;1.43;;;;;;;13.76;100.00;100389.64;5051167;56;1140694;-66
2023/08/09 06:30:55;;;;;;;4.25;2.65;;;;;;;13.73;100.00;100386.81;5070328;56;1140906;-65
2023/08/09 06:36:01;;;;;;;2.50;1.52;;;;;;;13.71;100.00;100387.44;5059671;56;1141034;-65
2023/08/09 06:41:07;;;;;;;2.43;1.27;;;;;;;13.73;100.00;100390.80;5057979;56;1140925;-65
2023/08/09 06:46:12;;;;;;;2.03;1.23;;;;;;;13.77;100.00;100387.34;5076502;56;1140698;-66
2023/08/09 06:51:18;;;;;;;3.33;1.33;;;;;;;13.78;100.00;100386.84;5056161;56;1140892;-66
2023/08/09 06:56:24;;;;;;;8.33;1.70;;;;;;;13.82;100.00;100381.60;4900585;58;1140851;-65
2023/08/09 07:01:30;;;;;;;2.92;1.37;;;;;;;13.87;100.00;100395.31;5041591;56;1140901;-67
2023/08/09 07:06:35;;;;;;;1.60;1.07;;;;;;;13.98;100.00;100397.80;5083658;56;1140843;-66
2023/08/09 07:11:41;;;;;;;7.23;1.67;;;;;;;14.05;100.00;100405.56;5042727;56;1140775;-66
2023/08/09 07:16:47;;;;;;;4.63;2.23;;;;;;;14.03;100.00;100416.83;5058874;56;1140907;-65
2023/08/09 07:21:52;;;;;;;6.05;1.82;;;;;;;13.98;100.00;100415.92;5076160;56;1140992;-66
2023/08/09 07:26:58;;;;;;;1.85;1.32;;;;;;;13.96;100.00;100411.73;5049210;56;1140897;-66
2023/08/09 07:32:04;;;;;;;3.80;1.40;;;;;;;13.97;100.00;100410.75;5050168;56;1140761;-65
2023/08/09 07:37:09;;;;;;;3.40;1.27;;;;;;;14.03;100.00;100413.69;5063573;56;1140981;-66
2023/08/09 07:42:15;;;;;;;3.57;1.60;;;;;;;14.11;100.00;100429.39;5056518;56;1141070;-66
2023/08/09 07:47:21;;;;;;;4.20;1.57;;;;;;;14.12;100.00;100422.61;5047274;56;1141026;-66
2023/08/09 07:52:26;;;;;;;9.97;1.37;;;;;;;14.13;100.00;100426.95;5045390;56;1140811;-65
2023/08/09 07:57:33;;;;;;;6.60;1.60;;;;;;;14.20;100.00;100421.91;5070509;56;1140966;-65
2023/08/09 08:02:40;;;;;;;2.60;1.30;;;;;;;14.20;100.00;100429.87;5043557;56;1140648;-65
2023/08/09 08:07:46;;;;;;;2.73;1.60;;;;;;;14.25;100.00;100429.77;5043696;56;1140746;-66
2023/08/09 08:12:51;;;;;;;4.00;1.70;;;;;;;14.38;100.00;100426.78;5060707;56;1140839;-66
2023/08/09 08:17:57;;;;;;;10.32;1.87;;;;;;;14.45;100.00;100427.09;5041770;56;1140715;-65
2023/08/09 08:23:06;;;;;;;3.05;2.00;;;;;;;14.49;100.00;100433.80;5082794;56;1142998;-65
2023/08/09 08:28:10;;;;;;;5.10;2.13;;;;;;;14.52;100.00;100444.97;4978206;58;1141013;-65
2023/08/09 08:33:16;;;;;;;13.80;9.67;;;;;;;14.55;100.00;100446.50;5109483;56;1140940;-65
2023/08/09 08:38:23;;;;;;;9.57;4.53;;;;;;;14.54;100.00;100462.12;5068558;56;1142784;-65
2023/08/09 08:43:28;;;;;;;8.90;3.43;;;;;;;14.56;100.00;100463.66;4945851;58;1141232;-65
2023/08/09 08:48:36;;;;;;;12.27;5.03;;;;;;;14.52;100.00;100468.08;5061264;56;1141236;-66
2023/08/09 08:53:42;;;;;;;4.00;1.90;;;;;;;14.52;100.00;100469.41;5041178;56;1143225;-65
2023/08/09 08:58:48;;;;;;;3.90;2.40;;;;;;;14.62;100.00;100468.91;5010539;56;1140847;-65
2023/08/09 09:03:54;;;;;;;4.23;1.47;;;;;;;14.71;100.00;100460.03;5061307;56;1140825;-65
2023/08/09 09:09:00;;;;;;;31.27;6.10;;;;;;;14.83;100.00;100457.52;5042191;56;1140810;-65
2023/08/09 09:14:14;;;;;;;7.50;2.90;;;;;;;14.89;100.00;100466.25;5041928;57;1142986;-65
2023/08/09 09:19:19;;;;;;;6.30;2.00;;;;;;;14.96;100.00;100474.50;5062117;57;1140817;-65
2023/08/09 09:24:25;;;;;;;8.97;3.00;;;;;;;15.03;100.00;100482.23;5070406;56;1140812;-67
2023/08/09 09:29:33;;;;;;;3.50;2.47;;;;;;;15.11;100.00;100481.84;5104635;56;1140825;-66
2023/08/09 09:34:40;;;;;;;5.50;2.50;;;;;;;15.16;100.00;100481.37;5075466;56;1140799;-66
2023/08/09 09:39:47;;;;;;;3.92;2.00;;;;;;;15.37;100.00;100483.29;5142007;56;1141277;-67
2023/08/09 09:44:54;;;;;;;3.00;1.45;;;;;;;15.75;100.00;100485.34;5142686;55;1141110;-66
2023/08/09 09:49:59;;;;;;;5.78;2.42;;;;;;;16.07;100.00;100487.44;5065995;56;1140873;-66
2023/08/09 09:55:06;;;;;;;6.58;2.65;;;;;;;16.26;100.00;100487.25;5067687;56;1141018;-66
2023/08/09 10:00:20;;;;;;;4.17;1.73;;;;;;;16.31;100.00;100488.97;5061329;56;1141010;-67
2023/08/09 10:05:23;;;;;;;4.70;2.10;;;;;;;16.19;100.00;100489.70;5059539;57;1140912;-66
2023/08/09 10:10:29;;;;;;;2.93;2.17;;;;;;;16.11;100.00;100492.32;4992332;57;1140645;-65
2023/08/09 10:15:45;;;;;;;4.92;2.58;;;;;;;16.12;100.00;100498.00;4992504;57;1141256;-65
2023/08/09 10:20:55;;;;;;;4.13;2.17;;;;;;;16.13;100.00;100485.00;5013875;57;1141052;-65
2023/08/09 10:26:01;;;;;;;8.33;2.08;;;;;;;16.16;100.00;100491.37;4998311;57;1141085;-65
2023/08/09 10:31:07;;;;;;;6.43;1.60;;;;;;;16.37;100.00;100485.66;5004842;57;1140909;-66
2023/08/09 10:36:17;;;;;;;2.08;1.37;;;;;;;16.79;100.00;100487.61;5023224;57;1140819;-65
2023/08/09 10:41:24;;;;;;;4.00;1.73;;;;;;;17.02;100.00;100479.34;5018905;57;1140966;-65
2023/08/09 10:46:34;;;;;;;1.37;1.27;;;;;;;17.40;100.00;100470.45;4982954;57;1140871;-66
2023/08/09 10:51:44;;;;;;;1.50;0.90;;;;;;;17.66;100.00;100483.72;4935788;57;1146329;-65
2023/08/09 10:56:50;;;;;;;1.40;0.85;;;;;;;17.77;100.00;100486.89;5080002;56;1140695;-65
2023/08/09 11:01:56;;;;;;;1.47;0.90;;;;;;;17.71;100.00;100470.69;5095014;56;1140934;-65
2023/08/09 11:07:03;;;;;;;2.97;1.20;;;;;;;17.53;100.00;100473.48;5042100;56;1140766;-65
2023/08/09 11:12:10;;;;;;;0.85;0.85;;;;;;;17.48;100.00;100479.30;5065547;56;1141083;-65
2023/08/09 11:17:16;;;;;;;2.60;1.00;;;;;;;17.70;100.00;100479.22;5117027;56;1140876;-65
2023/08/09 11:22:21;;;;;;;1.22;0.90;;;;;;;17.80;100.00;100480.38;5047920;56;1140713;-66
2023/08/09 11:27:27;;;;;;;2.15;1.20;;;;;;;17.85;100.00;100479.39;5093286;56;1140803;-65
2023/08/09 11:32:33;;;;;;;1.55;1.15;;;;;;;17.73;100.00;100478.02;5126525;56;1140865;-67
2023/08/09 11:37:39;;;;;;;1.42;1.20;;;;;;;17.86;100.00;100480.56;5063093;56;1140882;-65
2023/08/09 11:42:44;;;;;;;1.47;0.90;;;;;;;18.05;100.00;100487.90;5042852;56;1140755;-66
2023/08/09 11:47:54;;;;;;;3.50;1.35;;;;;;;18.29;100.00;100482.54;5042936;56;1140833;-67
2023/08/09 11:53:00;;;;;;;1.40;1.17;;;;;;;18.50;100.00;100485.49;5042406;57;1140850;-66
2023/08/09 11:58:06;;;;;;;1.80;0.93;;;;;;;18.57;100.00;100495.87;5043370;56;1140986;-66
2023/08/09 12:03:11;;;;;;;0.80;0.80;;;;;;;18.65;100.00;100493.69;5072554;57;1141132;-66
2023/08/09 12:08:17;;;;;;;7.70;1.62;;;;;;;18.62;100.00;100487.36;5052555;57;1140904;-66
2023/08/09 12:13:23;;;;;;;1.85;0.82;;;;;;;18.66;100.00;100481.97;5052740;57;1140826;-65
2023/08/09 12:18:29;;;;;;;1.12;1.02;;;;;;;18.61;100.00;100487.03;5069014;56;1140879;-65
2023/08/09 12:23:37;;;;;;;1.27;1.00;;;;;;;18.69;100.00;100488.83;5116366;56;1140742;-66
2023/08/09 12:28:43;;;;;;;2.15;1.20;;;;;;;18.90;100.00;100483.75;5052250;57;1140780;-66
2023/08/09 12:33:50;;;;;;;2.25;1.35;;;;;;;18.97;100.00;100484.20;5075492;56;1140778;-66
2023/08/09 12:38:55;;;;;;;4.03;0.80;;;;;;;19.01;100.00;100483.86;5072857;56;1140696;-66
2023/08/09 12:44:01;;;;;;;0.90;0.90;;;;;;;18.91;100.00;100497.48;5053723;57;1140690;-65
2023/08/09 12:49:07;;;;;;;2.53;0.97;;;;;;;19.15;100.00;100492.00;5053964;57;1147835;-65
2023/08/09 12:54:13;;;;;;;5.22;1.85;;;;;;;19.22;100.00;100494.83;5073138;57;1140981;-65
2023/08/09 12:59:18;;;;;;;1.77;0.80;;;;;;;19.17;100.00;100500.70;5057763;56;1141060;-65
2023/08/09 13:04:24;;;;;;;1.12;0.95;;;;;;;19.14;100.00;100503.73;5046794;57;1141003;-66
2023/08/09 13:09:30;;;;;;;1.20;1.10;;;;;;;19.23;100.00;100508.56;5054796;56;1141105;-66
2023/08/09 13:14:36;;;;;;;5.15;2.30;;;;;;;19.24;100.00;100504.87;4968090;58;1141037;-66
2023/08/09 13:19:42;;;;;;;6.87;1.22;;;;;;;19.30;100.00;100510.86;5122907;56;1140860;-65
2023/08/09 13:24:47;;;;;;;2.90;0.80;;;;;;;19.43;100.00;100516.98;5126200;56;1140849;-66
2023/08/09 13:29:53;;;;;;;0.62;0.60;;;;;;;19.53;100.00;100519.83;5147624;56;1140822;-65
2023/08/09 13:34:59;;;;;;;4.30;1.00;;;;;;;19.69;90.40;100520.23;5059587;56;1140932;-66
2023/08/09 13:40:05;;;;;;;0.90;0.88;;;;;;;19.57;92.69;100517.61;5046455;57;1138858;-64
2023/08/09 13:45:12;;;;;;;0.93;0.93;;;;;;;19.57;91.27;100529.68;5065767;57;1138695;-65
2023/08/09 13:50:17;;;;;;;1.17;0.80;;;;;;;19.57;90.11;100524.31;5048032;57;1182759;-66
2023/08/09 13:55:23;;;;;;;0.88;0.80;;;;;;;19.68;86.86;100529.30;5038103;57;1138664;-65
2023/08/09 14:00:30;;;;;;;2.35;1.00;;;;;;;19.79;83.01;100524.86;5043995;57;1139025;-65
2023/08/09 14:05:39;;;;;;;3.33;1.02;;;;;;;19.81;81.52;100526.86;5086297;57;1138588;-65
2023/08/09 14:10:44;;;;;;;0.90;0.62;;;;;;;19.88;83.70;100536.35;5041143;57;1138814;-66
2023/08/09 14:15:51;;;;;;;3.07;1.10;;;;;;;19.91;82.24;100539.52;5068612;56;1138862;-65
2023/08/09 14:20:56;;;;;;;3.02;1.07;;;;;;;19.87;83.49;100536.02;5049469;57;1139155;-65
2023/08/09 14:26:02;;;;;;;2.33;0.80;;;;;;;19.72;82.90;100545.86;5039060;56;1138679;-65
2023/08/09 14:31:08;;;;;;;11.53;2.00;;;;;;;19.53;80.44;100552.03;5061683;56;1138699;-66
2023/08/09 14:36:14;;;;;;;0.70;0.70;;;;;;;19.45;82.90;100552.52;5139709;56;1140778;-66
2023/08/09 14:41:19;;;;;;;4.90;0.93;;;;;;;19.29;81.04;100569.53;5130994;56;1138794;-66
2023/08/09 14:46:25;;;;;;;1.92;1.02;;;;;;;19.27;85.31;100576.91;5119801;56;1138968;-66
2023/08/09 14:51:31;;;;;;;2.47;1.27;;;;;;;19.35;82.85;100579.57;5043888;57;1139082;-66
2023/08/09 14:56:36;;;;;;;3.10;1.35;;;;;;;19.54;82.80;100582.38;5087943;56;1139189;-66
2023/08/09 15:01:42;;;;;;;3.60;1.30;;;;;;;19.73;82.78;100587.78;5060197;56;1138811;-65
2023/08/09 15:06:47;;;;;;;4.97;1.10;;;;;;;19.78;80.12;100584.08;5059021;56;1138777;-65
2023/08/09 15:11:53;;;;;;;5.42;1.15;;;;;;;19.89;83.38;100592.55;5065252;56;1138413;-65
2023/08/09 15:16:59;;;;;;;1.75;0.88;;;;;;;19.95;81.87;100586.48;5044590;56;1138710;-65
2023/08/09 15:22:04;;;;;;;0.78;0.78;;;;;;;19.93;81.17;100590.35;5100738;56;1138846;-66
2023/08/09 15:27:10;;;;;;;1.10;0.70;;;;;;;19.84;81.77;100593.61;5065120;56;1139372;-67
2023/08/09 15:32:15;;;;;;;2.62;0.90;;;;;;;19.81;81.10;100591.27;5050662;56;1139139;-66
2023/08/09 15:37:21;;;;;;;3.62;0.82;;;;;;;19.71;80.60;100597.34;5127049;56;1138885;-67
2023/08/09 15:42:27;;;;;;;6.32;0.70;;;;;;;19.61;79.78;100608.31;5059955;56;1138860;-67
2023/08/09 15:47:33;;;;;;;4.62;1.00;;;;;;;19.59;82.19;100609.49;5070427;56;1139027;-67
2023/08/09 15:52:40;;;;;;;2.20;0.90;;;;;;;19.61;81.69;100617.70;5045957;57;1138763;-66
2023/08/09 15:57:49;;;;;;;1.37;1.00;;;;;;;19.53;81.03;100624.46;5043876;57;1138887;-65
2023/08/09 16:02:56;;;;;;;2.75;0.78;;;;;;;19.42;76.70;100635.52;5085409;57;1138811;-66
2023/08/09 16:08:01;;;;;;;9.53;0.90;;;;;;;19.27;77.63;100641.27;5046485;56;1138849;-66
2023/08/09 16:13:07;;;;;;;2.17;1.40;;;;;;;19.14;77.54;100653.03;5076965;56;1138894;-66
2023/08/09 16:18:13;;;;;;;4.13;1.00;;;;;;;19.06;77.82;100651.22;5061973;56;1139035;-66
2023/08/09 16:23:19;;;;;;;2.67;0.90;;;;;;;19.02;78.77;100654.41;5091761;56;1139307;-67
2023/08/09 16:28:24;;;;;;;1.75;1.22;;;;;;;19.07;79.50;100658.27;5116536;56;1138908;-66
2023/08/09 16:33:30;;;;;;;6.55;1.27;;;;;;;19.03;79.32;100662.28;4951901;58;1138811;-66
2023/08/09 16:38:35;;;;;;;2.50;1.00;;;;;;;19.03;80.89;100666.30;5149139;56;1138907;-65
2023/08/09 16:43:41;;;;;;;4.67;1.30;;;;;;;18.95;80.02;100668.98;5108952;56;1138847;-66
2023/08/09 16:48:49;;;;;;;7.25;1.85;;;;;;;18.84;80.58;100667.99;5083886;56;1245848;-66
2023/08/09 16:53:54;;;;;;;4.83;1.27;;;;;;;18.80;81.75;100670.16;4979372;58;1138641;-65
2023/08/09 16:59:00;;;;;;;3.90;1.20;;;;;;;18.76;82.08;100678.23;5116026;56;1138816;-66
2023/08/09 17:04:06;;;;;;;2.42;1.10;;;;;;;18.74;83.47;100680.23;5051532;57;1138526;-66
2023/08/09 17:09:12;;;;;;;1.87;0.88;;;;;;;18.72;84.47;100686.27;5068484;56;1138871;-66
2023/08/09 17:14:17;;;;;;;2.33;1.25;;;;;;;18.69;85.15;100683.07;5041992;56;1138799;-66
2023/08/09 17:19:25;;;;;;;6.85;1.57;;;;;;;18.70;86.16;100683.41;5105434;56;1138776;-66
2023/08/09 17:24:30;;;;;;;8.95;1.80;;;;;;;18.76;86.08;100692.13;5102857;56;1138791;-66
2023/08/09 17:29:36;;;;;;;3.52;1.30;;;;;;;18.70;86.26;100687.42;5073587;56;1139024;-66
2023/08/09 17:34:41;;;;;;;4.05;1.45;;;;;;;18.61;86.61;100694.64;5078374;56;1138809;-66
2023/08/09 17:39:48;;;;;;;2.20;1.12;;;;;;;18.54;87.40;100697.59;5054755;56;1138735;-66
2023/08/09 17:44:54;;;;;;;6.45;1.42;;;;;;;18.47;88.06;100698.78;5065348;56;1138638;-66
2023/08/09 17:50:00;;;;;;;6.58;3.08;;;;;;;18.44;88.88;100704.96;5060330;56;1138921;-65
2023/08/09 17:55:07;;;;;;;15.95;5.35;;;;;;;18.42;89.85;100709.64;5118595;56;1138968;-66
2023/08/09 18:00:20;;;;;;;11.83;4.65;;;;;;;18.44;90.66;100708.48;5089659;56;1140722;-66
2023/08/09 18:05:25;;;;;;;9.08;5.72;;;;;;;18.40;91.82;100712.48;4962646;58;1140803;-66
2023/08/09 18:10:30;;;;;;;8.95;5.97;;;;;;;18.45;93.39;100711.50;4930118;58;1138727;-65
2023/08/09 18:15:37;;;;;;;12.85;6.30;;;;;;;18.46;94.45;100717.19;5029997;56;1138708;-66
2023/08/09 18:20:42;;;;;;;58.08;32.30;;;;;;;18.47;95.65;100726.91;5119932;56;1140877;-66
2023/08/09 18:25:48;;;;;;;79.00;44.13;;;;;;;18.37;95.53;100732.89;4960147;58;1142911;-66
2023/08/09 18:30:54;;;;;;;60.73;33.20;;;;;;;18.28;96.49;100737.90;5129550;56;1143042;-66
2023/08/09 18:36:03;;;;;;;17.75;9.03;;;;;;;18.22;97.54;100746.07;5150022;56;1142934;-65
2023/08/09 18:41:09;;;;;;;26.12;12.88;;;;;;;18.22;98.68;100755.44;5114786;56;1141013;-66
2023/08/09 18:46:15;;;;;;;54.10;22.67;;;;;;;18.22;99.64;100759.95;5126517;56;1142935;-65
2023/08/09 18:51:20;;;;;;;49.13;26.50;;;;;;;18.15;100.00;100770.50;5068014;56;1142747;-65
2023/08/09 18:56:26;;;;;;;23.40;12.95;;;;;;;17.99;100.00;100770.92;5082337;56;1144964;-66
2023/08/09 19:01:32;;;;;;;14.93;7.67;;;;;;;17.93;100.00;100784.44;5084324;56;1144965;-66
2023/08/09 19:06:38;;;;;;;28.20;16.57;;;;;;;17.87;100.00;100789.11;5113944;56;1143065;-66
2023/08/09 19:11:45;;;;;;;14.78;7.90;;;;;;;17.83;100.00;100795.27;5088418;56;1145132;-66
2023/08/09 19:16:50;;;;;;;3.83;2.05;;;;;;;17.81;100.00;100805.29;5121141;56;1142821;-66
2023/08/09 19:21:57;;;;;;;8.20;3.50;;;;;;;17.69;100.00;100807.90;5140548;56;1157291;-69
2023/08/09 19:27:03;;;;;;;12.73;6.85;;;;;;;17.48;100.00;100809.55;5178835;55;1140705;-66
2023/08/09 19:32:08;;;;;;;8.98;3.65;;;;;;;17.41;100.00;100814.36;5141885;56;1142927;-65
2023/08/09 19:37:15;;;;;;;6.73;2.73;;;;;;;17.47;100.00;100826.59;5142309;56;1140765;-66
2023/08/09 19:42:21;;;;;;;7.53;2.40;;;;;;;17.44;100.00;100826.06;4993297;58;1140936;-66
2023/08/09 19:47:26;;;;;;;6.67;5.12;;;;;;;17.29;100.00;100818.25;5128517;56;1140852;-66
2023/08/09 19:52:32;;;;;;;6.83;3.80;;;;;;;17.29;100.00;100818.25;5138135;56;1140677;-67
2023/08/09 19:57:38;;;;;;;8.63;3.45;;;;;;;17.29;100.00;100832.96;5054341;57;1140925;-66
2023/08/09 20:02:44;;;;;;;5.62;3.42;;;;;;;17.25;100.00;100832.95;5100925;56;1141141;-66
2023/08/09 20:07:50;;;;;;;5.78;2.98;;;;;;;17.24;100.00;100838.79;5084866;56;1141152;-66
2023/08/09 20:12:55;;;;;;;7.22;3.42;;;;;;;17.20;100.00;100834.73;5084103;56;1141097;-66
2023/08/09 20:18:05;;;;;;;6.90;4.40;;;;;;;17.21;100.00;100838.59;4978375;58;1140864;-66
2023/08/09 20:23:13;;;;;;;8.53;4.50;;;;;;;17.21;100.00;100839.94;5042445;57;1140721;-66
2023/08/09 20:28:19;;;;;;;8.60;4.05;;;;;;;17.22;100.00;100844.78;4880132;59;1140935;-65
2023/08/09 20:33:24;;;;;;;9.53;4.90;;;;;;;17.21;100.00;100855.97;5088331;56;1140819;-66
2023/08/09 20:38:30;;;;;;;11.65;3.70;;;;;;;17.15;100.00;100850.38;5125752;56;1141156;-66
2023/08/09 20:43:36;;;;;;;5.28;3.10;;;;;;;17.05;100.00;100856.31;5112218;56;1152852;-67
2023/08/09 20:48:43;;;;;;;10.33;4.93;;;;;;;16.88;100.00;100873.52;5146851;56;1140692;-67
2023/08/09 20:53:49;;;;;;;10.87;4.03;;;;;;;16.41;100.00;100895.47;5126397;56;1142778;-66
2023/08/09 20:58:54;;;;;;;7.67;4.90;;;;;;;16.13;100.00;100895.93;5125014;56;1142931;-66
2023/08/09 21:04:00;;;;;;;9.67;4.27;;;;;;;16.09;100.00;100900.36;5058501;56;1140939;-66
2023/08/09 21:09:06;;;;;;;24.02;13.03;;;;;;;16.14;100.00;100895.44;5048300;57;1140894;-66
2023/08/09 21:14:12;;;;;;;16.77;7.80;;;;;;;16.27;100.00;100901.28;5074082;56;1144981;-66
2023/08/09 21:19:18;;;;;;;13.23;7.30;;;;;;;16.33;100.00;100897.20;5153458;56;1142895;-65
2023/08/09 21:24:23;;;;;;;7.30;4.27;;;;;;;16.46;100.00;100902.55;5133770;56;1143045;-66
2023/08/09 21:29:29;;;;;;;9.27;4.17;;;;;;;16.52;100.00;100912.62;5133510;56;1140931;-66
2023/08/09 21:34:36;;;;;;;13.62;7.12;;;;;;;16.48;100.00;100915.26;5138992;56;1140905;-66
2023/08/09 21:39:42;;;;;;;5.93;4.00;;;;;;;16.57;100.00;100904.67;5149533;56;1142892;-66
2023/08/09 21:44:47;;;;;;;7.00;3.97;;;;;;;16.65;100.00;100906.16;5142890;56;1140726;-66
2023/08/09 21:49:53;;;;;;;4.43;3.00;;;;;;;16.72;100.00;100902.72;5142348;56;1140879;-66
2023/08/09 21:54:59;;;;;;;9.63;5.07;;;;;;;16.65;100.00;100902.14;5162099;56;1140869;-66
2023/08/09 22:00:07;;;;;;;6.08;3.82;;;;;;;16.60;100.00;100902.55;5135368;56;1140785;-66
2023/08/09 22:05:12;;;;;;;8.13;4.20;;;;;;;16.53;100.00;100908.96;5085030;56;1140742;-67
2023/08/09 22:10:18;;;;;;;9.40;4.20;;;;;;;16.39;100.00;100903.27;5077298;57;1141046;-65
2023/08/09 22:15:24;;;;;;;8.03;2.83;;;;;;;16.28;100.00;100904.80;5084933;56;1140793;-66
2023/08/09 22:20:29;;;;;;;10.33;3.30;;;;;;;16.25;100.00;100903.75;5120036;56;1140814;-66
2023/08/09 22:25:35;;;;;;;4.87;2.60;;;;;;;16.20;100.00;100905.52;5119687;56;1143007;-65
2023/08/09 22:30:48;;;;;;;10.97;3.37;;;;;;;16.16;100.00;100906.81;5139609;56;1141036;-66
2023/08/09 22:35:51;;;;;;;6.57;3.47;;;;;;;16.09;100.00;100900.36;5129360;56;1142859;-66
2023/08/09 22:40:56;;;;;;;5.33;4.00;;;;;;;15.96;100.00;100908.69;5055672;57;1141054;-66
2023/08/09 22:46:02;;;;;;;5.80;3.20;;;;;;;15.83;100.00;100906.33;5074876;57;1141179;-66
2023/08/09 22:51:08;;;;;;;4.65;2.80;;;;;;;15.77;100.00;100909.56;5054735;56;1140643;-65
2023/08/09 22:56:14;;;;;;;4.60;2.87;;;;;;;15.79;100.00;100908.08;5055070;56;1141136;-66